Time;durP1;ratioP1;P1;durP2;ratioP2;P2;SDS_P1;SDS_P2;PMS_P1;PMS_P2;Temp;Humidity;BMP_temperature;BMP_pressure;BME280_temperature;BME280_humidity;BME280_pressure;Samples;Min_cycle;Max_cycle;Signal;HPM_P1;HPM_P2
2021/05/18 00:00:01;;;;;;;13.48;3.35;;;13.00;99.90;;;;;;4993319;28;20173;-82
2021/05/18 00:02:26;;;;;;;11.13;3.85;;;12.90;99.90;;;;;;5008456;28;20173;-80
2021/05/18 00:04:52;;;;;;;13.98;3.75;;;12.90;99.90;;;;;;5008308;28;20299;-80
2021/05/18 00:07:22;;;;;;;13.30;5.53;;;12.80;99.90;;;;;;4993181;28;20221;-81
2021/05/18 00:12:33;;;;;;;4.32;3.47;;;12.60;99.90;;;;;;4993766;28;20192;-80
2021/05/18 00:15:00;;;;;;;8.95;5.47;;;12.60;99.90;;;;;;4993077;28;20243;-81
2021/05/18 00:17:27;;;;;;;10.38;4.57;;;12.60;99.90;;;;;;4993118;28;20284;-80
2021/05/18 00:19:53;;;;;;;10.98;3.92;;;12.60;99.90;;;;;;4992876;28;20181;-82
2021/05/18 00:22:18;;;;;;;10.05;3.80;;;12.40;99.90;;;;;;5008199;28;20594;-80
2021/05/18 00:24:44;;;;;;;18.58;4.15;;;12.40;99.90;;;;;;5008209;28;20232;-80
2021/05/18 00:27:10;;;;;;;15.55;4.32;;;12.40;99.90;;;;;;4992843;28;20216;-79
2021/05/18 00:29:36;;;;;;;10.82;4.30;;;12.40;99.90;;;;;;4992849;28;20173;-81
2021/05/18 00:32:01;;;;;;;12.85;4.75;;;12.50;99.90;;;;;;4993381;28;20617;-79
2021/05/18 00:34:27;;;;;;;17.17;4.75;;;12.70;99.90;;;;;;5007988;28;20592;-79
2021/05/18 00:36:53;;;;;;;12.18;5.13;;;12.70;99.90;;;;;;4993084;28;20176;-80
2021/05/18 00:39:18;;;;;;;11.18;4.53;;;12.70;99.90;;;;;;4994949;28;20193;-79
2021/05/18 00:41:46;;;;;;;10.77;4.20;;;12.60;99.90;;;;;;4996662;28;20560;-81
2021/05/18 00:44:13;;;;;;;12.45;4.40;;;12.50;99.90;;;;;;4997249;28;20209;-80
2021/05/18 00:46:39;;;;;;;12.85;4.53;;;12.50;99.90;;;;;;4997148;28;20170;-79
2021/05/18 00:49:04;;;;;;;10.05;4.15;;;12.60;99.90;;;;;;5012202;28;20635;-80
2021/05/18 00:51:30;;;;;;;15.80;6.15;;;12.60;99.90;;;;;;4997136;28;20169;-80
2021/05/18 00:53:58;;;;;;;20.58;5.30;;;12.60;99.90;;;;;;4996797;28;20176;-80
2021/05/18 00:59:01;;;;;;;18.27;4.57;;;12.50;99.90;;;;;;4996684;28;20207;-80
2021/05/18 01:01:27;;;;;;;13.73;4.50;;;12.50;99.90;;;;;;4996286;28;20169;-81
2021/05/18 01:03:54;;;;;;;12.45;4.93;;;12.50;99.90;;;;;;4996614;28;20212;-81
2021/05/18 01:06:29;;;;;;;17.33;4.78;;;12.70;99.90;;;;;;4997097;28;20172;-83
2021/05/18 01:09:15;;;;;;;14.80;4.93;;;12.80;99.90;;;;;;4996588;28;20187;-83
2021/05/18 01:11:46;;;;;;;17.42;5.00;;;12.70;99.90;;;;;;4996449;28;20617;-81
2021/05/18 01:14:16;;;;;;;11.15;4.45;;;12.70;99.90;;;;;;4996053;28;20169;-82
2021/05/18 01:16:47;;;;;;;11.18;4.40;;;12.60;99.90;;;;;;5011646;28;20533;-80
2021/05/18 01:19:16;;;;;;;11.77;4.13;;;12.50;99.90;;;;;;4996437;28;20778;-80
2021/05/18 01:21:42;;;;;;;9.55;4.30;;;12.60;99.90;;;;;;4996430;28;20252;-79
2021/05/18 01:24:08;;;;;;;16.05;4.28;;;12.60;99.90;;;;;;5010949;28;20752;-80
2021/05/18 01:26:36;;;;;;;18.52;5.00;;;12.50;99.90;;;;;;4996173;28;20173;-81
2021/05/18 01:29:04;;;;;;;12.07;4.05;;;12.40;99.90;;;;;;5011281;28;20204;-80
2021/05/18 01:31:31;;;;;;;11.20;4.85;;;12.40;99.90;;;;;;4996313;28;20173;-81
2021/05/18 01:34:01;;;;;;;12.30;6.18;;;12.50;99.90;;;;;;4996197;28;20165;-80
2021/05/18 01:36:27;;;;;;;14.35;5.05;;;12.50;99.90;;;;;;4996067;28;20165;-82
2021/05/18 01:44:18;;;;;;;13.30;4.93;;;12.60;99.90;;;;;;4995488;28;20297;-81
2021/05/18 01:46:45;;;;;;;19.58;6.22;;;12.60;99.90;;;;;;4996129;28;20165;-80
2021/05/18 01:49:12;;;;;;;14.98;4.97;;;12.60;99.90;;;;;;4995843;28;20196;-81
2021/05/18 01:51:44;;;;;;;12.35;5.30;;;12.60;99.90;;;;;;5010079;28;20173;-82
2021/05/18 01:54:13;;;;;;;18.02;5.85;;;12.60;99.90;;;;;;4995908;28;21158;-81
2021/05/18 01:56:52;;;;;;;15.95;5.82;;;12.50;99.90;;;;;;4995829;28;20185;-81
2021/05/18 01:59:23;;;;;;;9.93;4.47;;;12.60;99.90;;;;;;4995638;28;20181;-81
2021/05/18 02:01:52;;;;;;;12.40;5.25;;;12.60;99.90;;;;;;4995718;28;20563;-83
2021/05/18 02:04:31;;;;;;;13.48;5.55;;;12.50;99.90;;;;;;4995595;28;20204;-81
2021/05/18 02:07:04;;;;;;;21.23;5.18;;;12.40;99.90;;;;;;4995922;28;20260;-81
2021/05/18 02:09:29;;;;;;;8.45;4.88;;;12.60;99.90;;;;;;5010484;28;20176;-81
2021/05/18 02:11:55;;;;;;;14.25;4.60;;;12.60;99.90;;;;;;4995593;28;20169;-81
2021/05/18 02:14:28;;;;;;;11.10;5.85;;;12.60;99.90;;;;;;5010297;28;20648;-80
2021/05/18 02:17:01;;;;;;;13.85;4.55;;;12.60;99.90;;;;;;5010608;28;20528;-79
2021/05/18 02:19:47;;;;;;;15.95;5.20;;;12.70;99.90;;;;;;4995324;28;20173;-84
2021/05/18 02:24:35;;;;;;;15.75;5.30;;;12.70;99.90;;;;;;4995117;28;20157;-82
2021/05/18 02:25:03;;;;;;;18.23;5.50;;;12.70;99.90;;;;;;4995419;28;20585;-80
2021/05/18 02:27:29;;;;;;;12.85;5.22;;;12.90;99.90;;;;;;4995214;28;20280;-79
2021/05/18 02:29:56;;;;;;;14.45;5.15;;;12.80;99.90;;;;;;4995196;28;20538;-79
2021/05/18 02:32:23;;;;;;;14.35;5.45;;;12.70;99.90;;;;;;4995503;28;20168;-79
2021/05/18 02:34:49;;;;;;;13.35;5.18;;;12.60;99.90;;;;;;5010059;28;20169;-80
2021/05/18 02:37:15;;;;;;;17.98;5.90;;;12.60;99.90;;;;;;4994868;28;20277;-80
2021/05/18 02:39:40;;;;;;;15.45;5.53;;;12.60;99.90;;;;;;4995090;28;20165;-81
2021/05/18 02:42:06;;;;;;;15.57;5.65;;;12.50;99.90;;;;;;4994871;28;20216;-79
2021/05/18 02:44:41;;;;;;;13.00;5.38;;;12.70;99.90;;;;;;4994713;28;20223;-82
2021/05/18 02:49:51;;;;;;;15.60;5.78;;;12.70;99.90;;;;;;4994977;28;20212;-80
2021/05/18 02:52:18;;;;;;;15.82;4.72;;;12.70;99.90;;;;;;4994875;28;20161;-79
2021/05/18 02:54:47;;;;;;;14.27;4.97;;;12.70;99.90;;;;;;4994604;28;20169;-79
2021/05/18 02:57:16;;;;;;;13.38;4.78;;;12.60;99.90;;;;;;5009600;28;20284;-79
2021/05/18 02:59:42;;;;;;;16.67;5.18;;;12.50;99.90;;;;;;4994863;28;20180;-81
2021/05/18 03:02:07;;;;;;;15.27;5.47;;;12.60;99.90;;;;;;5009569;28;20170;-80
2021/05/18 03:04:33;;;;;;;17.13;5.65;;;12.80;99.90;;;;;;5009514;28;20216;-80
2021/05/18 03:06:59;;;;;;;14.82;6.13;;;12.80;99.90;;;;;;4994402;28;20169;-80
2021/05/18 03:09:24;;;;;;;10.73;5.05;;;12.80;99.90;;;;;;4994517;28;20184;-79
2021/05/18 03:11:53;;;;;;;12.82;5.13;;;12.60;99.90;;;;;;4995236;28;20642;-79
2021/05/18 03:14:20;;;;;;;16.83;5.10;;;12.60;99.90;;;;;;4994588;28;20459;-80
2021/05/18 03:16:47;;;;;;;16.38;5.55;;;12.60;99.90;;;;;;5009633;28;20173;-80
2021/05/18 03:19:14;;;;;;;24.15;6.78;;;12.50;99.90;;;;;;4997572;28;20189;-82
2021/05/18 03:21:42;;;;;;;24.45;6.45;;;12.40;99.90;;;;;;5010270;28;20173;-80
2021/05/18 03:24:09;;;;;;;13.98;5.85;;;12.50;99.90;;;;;;5003549;28;20197;-80
2021/05/18 03:26:36;;;;;;;13.82;5.53;;;12.40;99.90;;;;;;5007304;28;20541;-80
2021/05/18 03:29:20;;;;;;;19.40;6.55;;;12.60;99.90;;;;;;5015702;28;20198;-80
2021/05/18 03:37:03;;;;;;;20.95;6.20;;;12.40;99.90;;;;;;4994373;28;20181;-80
2021/05/18 03:39:29;;;;;;;14.80;6.40;;;12.30;99.90;;;;;;5009288;28;20236;-81
2021/05/18 03:42:01;;;;;;;21.88;6.53;;;12.50;99.90;;;;;;4994296;28;20188;-81
2021/05/18 03:52:24;;;;;;;18.35;7.07;;;12.20;99.90;;;;;;5002293;28;20177;-80
2021/05/18 03:58:30;;;;;;;16.27;5.90;;;12.40;99.90;;;;;;5031887;28;20180;-81
2021/05/18 04:03:23;;;;;;;13.13;6.43;;;12.40;99.90;;;;;;5011082;28;20243;-79
2021/05/18 04:16:58;;;;;;;15.40;5.40;;;12.10;99.90;;;;;;4911840;28;20750;-80
2021/05/18 04:19:28;;;;;;;13.18;5.50;;;12.20;99.90;;;;;;5007957;28;20193;-81
2021/05/18 04:22:20;;;;;;;11.60;5.57;;;12.30;99.90;;;;;;4993537;28;20605;-80
2021/05/18 04:51:53;;;;;;;8.85;4.90;;;12.60;99.90;;;;;;4993082;28;20232;-81
2021/05/18 04:54:48;;;;;;;16.23;5.50;;;12.80;99.90;;;;;;4992915;28;20252;-80
2021/05/18 05:00:18;;;;;;;15.07;5.15;;;12.80;99.90;;;;;;4992839;28;20323;-82
2021/05/18 05:08:30;;;;;;;11.55;5.07;;;13.10;99.90;;;;;;4992742;28;20560;-82
2021/05/18 05:16:06;;;;;;;13.07;4.13;;;13.00;99.90;;;;;;4992996;28;20660;-81
2021/05/18 05:18:31;;;;;;;25.27;5.45;;;13.10;99.90;;;;;;4992839;28;20189;-81
2021/05/18 05:20:57;;;;;;;19.65;5.68;;;13.20;99.90;;;;;;4992838;28;20240;-80
2021/05/18 05:23:22;;;;;;;10.90;4.53;;;13.00;99.90;;;;;;5007610;28;20178;-82
2021/05/18 05:25:48;;;;;;;8.43;4.65;;;13.00;99.90;;;;;;4993910;28;20173;-81
2021/05/18 05:28:14;;;;;;;13.80;4.40;;;13.00;99.90;;;;;;5011241;28;20201;-82
2021/05/18 05:30:40;;;;;;;15.77;5.60;;;12.90;99.90;;;;;;4996431;28;20197;-82
2021/05/18 05:33:05;;;;;;;5.78;4.50;;;12.90;99.90;;;;;;4996323;28;20169;-81
2021/05/18 05:35:31;;;;;;;10.10;3.65;;;13.10;99.90;;;;;;4995970;28;20264;-80
2021/05/18 05:37:57;;;;;;;8.43;3.55;;;13.00;99.90;;;;;;4996001;28;20189;-81
2021/05/18 05:40:23;;;;;;;6.43;4.00;;;13.00;99.90;;;;;;4996199;28;20256;-81
2021/05/18 05:42:49;;;;;;;13.63;4.03;;;13.30;99.90;;;;;;4995725;28;20169;-80
2021/05/18 05:45:14;;;;;;;10.38;3.95;;;13.40;99.90;;;;;;4995969;28;20275;-83
2021/05/18 05:47:40;;;;;;;9.25;3.65;;;13.60;99.90;;;;;;5010790;28;20702;-84
2021/05/18 05:50:07;;;;;;;9.65;4.10;;;13.60;99.90;;;;;;5011082;28;20227;-83
2021/05/18 05:52:34;;;;;;;7.97;2.80;;;13.80;99.90;;;;;;5011090;28;20175;-81
2021/05/18 05:55:01;;;;;;;6.97;3.17;;;13.90;99.90;;;;;;4996419;28;20558;-86
2021/05/18 05:57:26;;;;;;;6.10;3.38;;;13.90;99.90;;;;;;4995930;28;20193;-82
2021/05/18 05:59:52;;;;;;;11.98;3.60;;;14.00;99.90;;;;;;5010878;28;20264;-82
2021/05/18 06:02:17;;;;;;;15.52;3.20;;;13.80;99.90;;;;;;5010979;28;20637;-83
2021/05/18 06:04:43;;;;;;;5.45;3.25;;;13.80;99.90;;;;;;4995380;28;20724;-82
2021/05/18 06:07:09;;;;;;;7.97;2.88;;;13.70;99.90;;;;;;4995627;28;20256;-83
2021/05/18 06:09:36;;;;;;;4.50;2.58;;;13.50;99.90;;;;;;4994530;28;20523;-83
2021/05/18 06:15:17;;;;;;;4.75;2.53;;;13.40;99.90;;;;;;4965011;28;20177;-84
2021/05/18 06:29:34;;;;;;;11.07;3.45;;;13.50;99.90;;;;;;4995242;28;20243;-82
2021/05/18 06:47:40;;;;;;;6.50;2.60;;;13.80;99.90;;;;;;4970293;28;20269;-82
2021/05/18 06:50:30;;;;;;;7.35;3.25;;;14.10;99.90;;;;;;4994595;28;20197;-81
2021/05/18 06:52:56;;;;;;;8.07;3.55;;;14.20;99.90;;;;;;4994472;28;20542;-82
2021/05/18 06:55:33;;;;;;;7.25;3.13;;;14.40;99.90;;;;;;4994595;28;20633;-81
2021/05/18 06:58:08;;;;;;;3.83;2.40;;;14.60;99.90;;;;;;4994376;28;20262;-83
2021/05/18 07:00:37;;;;;;;8.63;3.33;;;15.10;99.90;;;;;;4994522;28;20191;-82
2021/05/18 07:03:11;;;;;;;7.07;2.83;;;15.00;99.90;;;;;;5009630;28;20273;-83
2021/05/18 07:10:44;;;;;;;16.95;2.75;;;14.70;99.90;;;;;;4994416;28;20176;-82
2021/05/18 07:13:11;;;;;;;6.18;2.85;;;14.80;99.90;;;;;;4994135;28;20169;-83
2021/05/18 07:15:38;;;;;;;5.07;2.90;;;14.80;99.90;;;;;;4993737;28;20181;-82
2021/05/18 07:18:05;;;;;;;2.65;2.45;;;14.80;99.90;;;;;;5009029;28;20684;-81
2021/05/18 07:20:32;;;;;;;6.85;2.95;;;14.70;99.90;;;;;;4993145;28;20308;-82
2021/05/18 07:23:02;;;;;;;10.45;3.28;;;14.60;99.90;;;;;;4988872;28;20169;-83
2021/05/18 07:25:27;;;;;;;9.43;3.40;;;14.60;99.90;;;;;;4990080;28;20705;-80
2021/05/18 07:27:53;;;;;;;9.18;3.53;;;14.30;99.90;;;;;;4989222;28;20189;-86
2021/05/18 07:30:19;;;;;;;9.07;3.40;;;14.10;99.90;;;;;;4989750;28;20182;-80
2021/05/18 07:32:45;;;;;;;8.13;4.07;;;14.00;99.90;;;;;;4991634;28;20677;-81
2021/05/18 07:35:11;;;;;;;7.43;3.45;;;14.20;99.90;;;;;;4991398;28;20169;-80
2021/05/18 07:37:37;;;;;;;16.98;4.72;;;14.60;99.90;;;;;;4990045;28;20558;-81
2021/05/18 07:40:04;;;;;;;5.15;3.78;;;14.70;99.90;;;;;;5008931;28;20173;-80
2021/05/18 07:42:30;;;;;;;6.53;4.25;;;15.20;99.90;;;;;;4993736;28;20161;-81
2021/05/18 07:44:56;;;;;;;7.78;4.32;;;15.40;99.90;;;;;;5008269;28;20219;-81
2021/05/18 07:47:26;;;;;;;9.20;4.35;;;15.70;99.90;;;;;;5008054;28;20212;-84
2021/05/18 07:49:57;;;;;;;5.18;4.75;;;15.70;99.90;;;;;;4991924;28;20165;-81
2021/05/18 08:00:41;;;;;;;8.50;6.53;;;15.70;99.90;;;;;;4993975;28;20651;-81
2021/05/18 08:05:47;;;;;;;10.90;6.25;;;15.70;99.90;;;;;;4995407;28;20219;-82
2021/05/18 08:08:13;;;;;;;7.45;6.75;;;15.60;99.90;;;;;;4990276;28;20281;-84
2021/05/18 08:10:47;;;;;;;7.80;5.93;;;15.80;99.90;;;;;;4993197;28;20212;-81
2021/05/18 08:13:14;;;;;;;5.95;5.53;;;15.90;99.90;;;;;;4993540;28;20164;-80
2021/05/18 08:18:33;;;;;;;7.75;5.85;;;15.50;99.90;;;;;;4993516;28;20193;-80
2021/05/18 09:28:43;;;;;;;3.53;2.58;;;16.90;99.90;;;;;;4998005;28;20200;-86
2021/05/18 10:36:41;;;;;;;3.83;1.88;;;18.90;99.90;;;;;;4976028;28;20240;-77
2021/05/18 10:39:27;;;;;;;5.15;1.70;;;18.70;99.90;;;;;;4975674;28;20189;-78
2021/05/18 10:41:54;;;;;;;2.03;1.83;;;18.80;99.90;;;;;;4975059;28;20177;-77
2021/05/18 10:44:20;;;;;;;1.70;1.60;;;18.80;99.90;;;;;;4975128;28;20216;-78
2021/05/18 10:46:49;;;;;;;2.58;2.22;;;19.00;99.90;;;;;;4973942;28;20181;-77
2021/05/18 10:49:18;;;;;;;5.00;1.63;;;19.20;99.90;;;;;;4975351;28;20281;-78
2021/05/18 10:51:52;;;;;;;1.73;1.10;;;19.20;99.90;;;;;;4975324;28;20188;-82
2021/05/18 10:54:26;;;;;;;1.30;1.30;;;19.00;99.90;;;;;;4975480;28;20193;-81
2021/05/18 10:59:24;;;;;;;1.48;1.35;;;18.40;99.90;;;;;;4974799;28;20194;-81
2021/05/18 11:02:12;;;;;;;1.52;1.38;;;18.40;99.90;;;;;;4973880;28;20182;-82
2021/05/18 11:04:44;;;;;;;2.15;1.45;;;18.40;99.90;;;;;;4974894;28;20251;-81
2021/05/18 11:07:12;;;;;;;1.77;1.52;;;18.60;99.90;;;;;;4990048;28;20542;-81
2021/05/18 11:09:39;;;;;;;1.80;1.42;;;18.60;99.90;;;;;;4973678;28;20245;-81
2021/05/18 11:12:14;;;;;;;4.45;1.77;;;18.50;99.90;;;;;;4975187;28;20166;-82
2021/05/18 11:14:41;;;;;;;2.30;1.48;;;18.40;99.90;;;;;;4978462;28;20177;-82
2021/05/18 11:17:09;;;;;;;7.43;2.38;;;18.00;99.90;;;;;;4992268;28;20176;-84
2021/05/18 11:19:51;;;;;;;1.85;1.48;;;17.90;99.90;;;;;;4996627;28;20178;-83
2021/05/18 11:23:18;;;;;;;2.70;1.40;;;17.80;99.90;;;;;;4995482;28;20181;-84
2021/05/18 11:25:02;;;;;;;1.08;1.00;;;18.00;99.90;;;;;;4996532;28;20225;-84
2021/05/18 11:27:28;;;;;;;2.45;1.35;;;17.80;99.90;;;;;;4990356;28;20188;-84
2021/05/18 11:29:54;;;;;;;2.30;1.40;;;18.10;99.90;;;;;;4993579;28;20174;-84
2021/05/18 11:32:20;;;;;;;2.38;1.27;;;17.90;99.90;;;;;;4993184;28;20172;-84
2021/05/18 11:35:02;;;;;;;18.45;1.58;;;17.90;99.90;;;;;;4987466;28;20188;-85
2021/05/18 11:37:29;;;;;;;2.03;1.05;;;18.00;99.90;;;;;;4975245;28;20256;-85
2021/05/18 11:40:15;;;;;;;2.05;1.48;;;18.20;99.90;;;;;;4974906;28;20225;-85
2021/05/18 11:42:42;;;;;;;1.85;1.40;;;18.20;99.90;;;;;;4976016;28;20174;-84
2021/05/18 11:45:14;;;;;;;1.73;1.27;;;18.40;99.90;;;;;;4973905;28;20211;-81
2021/05/18 11:47:42;;;;;;;3.90;1.77;;;18.60;99.90;;;;;;4974850;28;20260;-87
2021/05/18 11:50:17;;;;;;;1.15;1.10;;;19.10;99.90;;;;;;4975279;28;20233;-87
2021/05/18 11:52:43;;;;;;;1.67;1.58;;;19.20;99.90;;;;;;4975627;28;20263;-87
2021/05/18 11:55:30;;;;;;;2.15;1.25;;;19.30;99.90;;;;;;4974673;28;20927;-87
2021/05/18 11:57:59;;;;;;;4.63;1.10;;;19.20;99.90;;;;;;4975475;28;20221;-87
2021/05/18 12:00:28;;;;;;;1.00;0.90;;;19.10;99.90;;;;;;4991413;28;20258;-87
2021/05/18 12:03:11;;;;;;;4.47;1.00;;;18.60;99.90;;;;;;4974886;28;20173;-87
2021/05/18 12:05:50;;;;;;;4.15;1.30;;;18.20;99.90;;;;;;4974403;28;20738;-86
2021/05/18 12:08:35;;;;;;;1.95;1.08;;;18.10;99.90;;;;;;4974373;28;20521;-84
2021/05/18 12:11:15;;;;;;;1.42;1.10;;;18.10;99.90;;;;;;4973638;28;20170;-84
2021/05/18 12:13:47;;;;;;;2.70;1.38;;;18.20;99.90;;;;;;4974447;28;20533;-83
2021/05/18 12:16:14;;;;;;;1.73;1.13;;;18.50;99.90;;;;;;4973250;28;20170;-82
2021/05/18 12:18:42;;;;;;;2.30;1.20;;;18.90;99.90;;;;;;4973304;28;20190;-88
2021/05/18 12:21:14;;;;;;;1.40;0.90;;;19.20;99.90;;;;;;4974259;28;20261;-88
2021/05/18 12:23:43;;;;;;;1.05;1.00;;;19.20;99.90;;;;;;4974116;28;20174;-83
2021/05/18 12:26:16;;;;;;;4.93;1.25;;;19.20;99.90;;;;;;4975151;28;20201;-86
2021/05/18 12:29:00;;;;;;;1.48;1.10;;;19.00;99.90;;;;;;4973137;28;20553;-84
2021/05/18 12:31:31;;;;;;;0.85;0.85;;;19.10;99.90;;;;;;4972613;28;20166;-85
2021/05/18 12:33:58;;;;;;;1.10;1.00;;;18.80;99.90;;;;;;4989206;28;20185;-84
2021/05/18 12:36:24;;;;;;;1.77;0.98;;;18.60;99.90;;;;;;4972582;28;20681;-82
2021/05/18 12:39:10;;;;;;;0.90;0.70;;;18.40;99.90;;;;;;4972278;28;20190;-82
2021/05/18 12:42:06;;;;;;;2.95;0.98;;;18.00;99.90;;;;;;4972755;28;20253;-83
2021/05/18 12:44:34;;;;;;;1.23;0.80;;;17.80;99.90;;;;;;4973557;28;20213;-82
2021/05/18 12:47:03;;;;;;;1.92;0.90;;;18.10;99.90;;;;;;4973644;28;20170;-83
2021/05/18 12:49:38;;;;;;;1.30;0.68;;;18.30;99.90;;;;;;4972250;28;20511;-79
2021/05/18 12:52:16;;;;;;;1.33;0.75;;;18.50;99.90;;;;;;4973145;28;20169;-79
2021/05/18 12:54:50;;;;;;;3.17;0.82;;;18.40;99.90;;;;;;4972627;28;20196;-79
2021/05/18 12:57:24;;;;;;;1.67;0.70;;;18.20;99.90;;;;;;4972632;28;20520;-79
2021/05/18 13:00:08;;;;;;;1.60;0.70;;;18.40;99.90;;;;;;4972830;28;20176;-79
2021/05/18 13:02:38;;;;;;;2.22;0.80;;;18.60;99.90;;;;;;4973307;28;20688;-79
2021/05/18 13:05:09;;;;;;;2.42;0.90;;;18.60;99.90;;;;;;4988083;28;20283;-79
2021/05/18 13:07:35;;;;;;;0.80;0.80;;;18.30;99.90;;;;;;4973066;28;20659;-79
2021/05/18 13:10:18;;;;;;;2.15;1.20;;;18.40;99.90;;;;;;4987082;28;20178;-78
2021/05/18 13:12:47;;;;;;;1.67;1.08;;;18.30;99.90;;;;;;4973279;28;20178;-80
2021/05/18 13:15:20;;;;;;;2.17;0.90;;;18.20;99.90;;;;;;4992492;28;20208;-79
2021/05/18 13:17:54;;;;;;;1.17;1.10;;;18.10;99.90;;;;;;4992673;28;20188;-79
2021/05/18 13:20:21;;;;;;;0.98;0.98;;;17.80;99.90;;;;;;4992338;28;20176;-80
2021/05/18 13:22:52;;;;;;;3.22;0.90;;;17.80;99.90;;;;;;4974358;28;20174;-79
2021/05/18 13:28:03;;;;;;;2.00;1.00;;;18.30;99.90;;;;;;4992122;28;20240;-78
2021/05/18 13:30:30;;;;;;;2.65;1.13;;;18.30;99.90;;;;;;4992066;28;20300;-78
2021/05/18 13:32:56;;;;;;;0.75;0.60;;;18.40;99.90;;;;;;4992255;28;20177;-82
2021/05/18 13:35:26;;;;;;;4.20;0.90;;;18.20;99.90;;;;;;4992377;28;20177;-78
2021/05/18 13:37:52;;;;;;;1.23;1.10;;;18.10;99.90;;;;;;4992138;28;20200;-79
2021/05/18 13:40:19;;;;;;;1.27;0.82;;;18.10;99.90;;;;;;4990610;28;20264;-78
2021/05/18 13:42:50;;;;;;;1.23;0.88;;;18.10;99.90;;;;;;4991132;28;20177;-80
2021/05/18 13:45:16;;;;;;;1.25;1.00;;;18.40;99.90;;;;;;4992338;28;20205;-78
2021/05/18 13:47:42;;;;;;;1.50;1.38;;;18.50;99.90;;;;;;4994745;28;20547;-77
2021/05/18 13:50:08;;;;;;;1.35;0.85;;;18.60;99.90;;;;;;4995751;28;20170;-78
2021/05/18 13:52:34;;;;;;;4.38;0.70;;;18.80;99.90;;;;;;4995204;28;20193;-81
2021/05/18 13:54:59;;;;;;;0.80;0.80;;;18.80;99.90;;;;;;4994542;28;20169;-79
2021/05/18 13:57:25;;;;;;;2.45;0.80;;;18.90;99.90;;;;;;4995833;28;20664;-79
2021/05/18 13:59:51;;;;;;;1.00;0.90;;;18.80;99.90;;;;;;4995212;28;20525;-79
2021/05/18 14:02:18;;;;;;;5.53;0.77;;;18.60;99.90;;;;;;4995083;28;20215;-77
2021/05/18 14:04:44;;;;;;;1.73;0.80;;;18.60;99.90;;;;;;4993546;28;20290;-79
2021/05/18 14:08:01;;;;;;;2.33;0.80;;;18.40;99.90;;;;;;4995680;28;20197;-78
2021/05/18 14:10:00;;;;;;;0.85;0.55;;;18.30;99.90;;;;;;4982664;28;20196;-79
2021/05/18 14:12:25;;;;;;;1.45;1.02;;;18.30;99.90;;;;;;4995283;28;20166;-78
2021/05/18 14:14:51;;;;;;;0.82;0.70;;;18.40;99.90;;;;;;4994689;28;20192;-80
2021/05/18 14:17:16;;;;;;;4.50;0.70;;;18.80;99.90;;;;;;4994599;28;20161;-81
2021/05/18 14:19:42;;;;;;;2.08;0.85;;;18.80;99.90;;;;;;4995256;28;20165;-79
2021/05/18 14:22:08;;;;;;;0.95;0.70;;;18.60;99.90;;;;;;4995111;28;20177;-79
2021/05/18 14:24:41;;;;;;;0.55;0.47;;;18.50;99.90;;;;;;4995214;28;20279;-79
2021/05/18 14:27:10;;;;;;;1.63;0.60;;;18.40;99.90;;;;;;4995094;28;20256;-84
2021/05/18 14:29:35;;;;;;;1.45;1.17;;;18.60;99.90;;;;;;4993672;28;20161;-80
2021/05/18 14:32:01;;;;;;;1.65;0.80;;;18.80;99.90;;;;;;4994053;28;20177;-79
2021/05/18 14:34:27;;;;;;;0.93;0.80;;;18.90;99.90;;;;;;4995405;28;20173;-78
2021/05/18 14:36:52;;;;;;;0.80;0.80;;;19.00;99.90;;;;;;4995012;28;20172;-80
2021/05/18 14:39:24;;;;;;;1.00;0.70;;;18.90;99.90;;;;;;4993206;28;20193;-80
2021/05/18 14:44:34;;;;;;;1.30;1.20;;;18.50;99.90;;;;;;4993925;28;20247;-80
2021/05/18 14:47:08;;;;;;;1.23;0.90;;;18.20;99.90;;;;;;4993707;28;20200;-80
2021/05/18 14:57:35;;;;;;;0.82;0.70;;;18.00;99.90;;;;;;4993944;28;20228;-79
2021/05/18 15:00:00;;;;;;;1.13;0.90;;;17.90;99.90;;;;;;4994064;28;20719;-80
2021/05/18 15:02:26;;;;;;;2.50;1.88;;;17.80;99.90;;;;;;4994414;28;20208;-80
2021/05/18 15:04:52;;;;;;;0.55;0.50;;;18.00;99.90;;;;;;4994114;28;20649;-80
2021/05/18 15:07:17;;;;;;;0.80;0.60;;;18.10;99.90;;;;;;4993560;28;20220;-81
2021/05/18 15:09:43;;;;;;;1.27;0.65;;;18.10;99.90;;;;;;4994105;28;20169;-81
2021/05/18 15:12:09;;;;;;;0.98;0.90;;;18.00;99.90;;;;;;4994404;28;20174;-80
2021/05/18 15:14:38;;;;;;;1.27;1.10;;;18.20;99.90;;;;;;4994139;28;20223;-82
2021/05/18 15:17:04;;;;;;;0.80;0.80;;;18.50;99.90;;;;;;4994418;28;20227;-81
2021/05/18 15:19:32;;;;;;;1.65;0.88;;;18.50;99.90;;;;;;4992822;28;20573;-84
2021/05/18 15:21:59;;;;;;;1.65;0.90;;;18.70;99.90;;;;;;4993772;28;20193;-80
2021/05/18 15:24:25;;;;;;;1.27;1.00;;;18.70;99.90;;;;;;4993926;28;20193;-79
2021/05/18 15:26:51;;;;;;;1.02;0.90;;;18.50;99.90;;;;;;4993897;28;20180;-79
2021/05/18 15:29:17;;;;;;;1.85;1.00;;;18.50;99.90;;;;;;4990752;28;20201;-80
2021/05/18 15:31:42;;;;;;;1.00;1.00;;;18.50;99.90;;;;;;4975436;28;20580;-79
2021/05/18 15:34:08;;;;;;;1.75;0.80;;;18.50;99.90;;;;;;4974377;28;20261;-81
2021/05/18 15:36:34;;;;;;;3.72;0.98;;;18.60;99.90;;;;;;4974571;28;20166;-79
2021/05/18 15:38:59;;;;;;;1.35;0.80;;;18.60;99.90;;;;;;4974515;28;20194;-79
2021/05/18 15:41:25;;;;;;;2.90;1.10;;;18.60;99.90;;;;;;4974029;28;20223;-81
2021/05/18 15:43:51;;;;;;;1.17;0.90;;;18.50;99.90;;;;;;4974423;28;20531;-81
2021/05/18 15:46:16;;;;;;;1.13;0.70;;;18.00;99.90;;;;;;4973956;28;20618;-80
2021/05/18 15:48:42;;;;;;;6.30;1.17;;;18.00;99.90;;;;;;4973878;28;20190;-78
2021/05/18 15:51:08;;;;;;;1.27;0.90;;;18.00;99.90;;;;;;4971623;28;20207;-87
2021/05/18 15:53:34;;;;;;;1.02;0.95;;;18.00;99.90;;;;;;5008310;28;20177;-80
2021/05/18 15:55:59;;;;;;;1.30;0.80;;;17.90;99.90;;;;;;4993758;28;20522;-83
2021/05/18 15:58:26;;;;;;;0.80;0.80;;;17.80;99.90;;;;;;4993153;28;20288;-85
2021/05/18 16:00:53;;;;;;;0.88;0.80;;;17.90;99.90;;;;;;4993511;28;20220;-83
2021/05/18 16:03:19;;;;;;;4.78;0.80;;;18.00;99.90;;;;;;4993262;28;20165;-78
2021/05/18 16:05:45;;;;;;;4.15;1.20;;;18.30;99.90;;;;;;4984195;28;20565;-80
2021/05/18 16:10:55;;;;;;;1.98;1.73;;;18.10;99.90;;;;;;4975181;28;20645;-87
2021/05/18 16:13:23;;;;;;;1.27;1.00;;;17.70;99.90;;;;;;4974622;28;20169;-85
2021/05/18 16:16:17;;;;;;;3.95;1.38;;;17.70;99.90;;;;;;4983793;28;20212;-82
2021/05/18 16:18:46;;;;;;;3.17;2.33;;;17.80;99.90;;;;;;4993476;28;20201;-87
2021/05/18 16:21:17;;;;;;;1.60;1.50;;;17.90;99.90;;;;;;4995924;28;20169;-80
2021/05/18 16:23:50;;;;;;;7.40;1.20;;;18.10;99.90;;;;;;4995781;28;20173;-83
2021/05/18 16:26:18;;;;;;;2.90;1.17;;;18.30;99.90;;;;;;4993800;28;20637;-91
2021/05/18 16:28:45;;;;;;;7.38;2.10;;;18.50;99.90;;;;;;4992458;28;20709;-79
2021/05/18 16:31:21;;;;;;;3.53;1.55;;;18.60;99.90;;;;;;4992305;28;20216;-80
2021/05/18 16:33:47;;;;;;;2.22;1.42;;;18.50;99.90;;;;;;4991986;28;20173;-79
2021/05/18 16:36:15;;;;;;;2.80;1.38;;;18.20;99.90;;;;;;4989426;28;20196;-83
2021/05/18 16:38:42;;;;;;;1.30;1.20;;;18.10;99.90;;;;;;5007157;28;20201;-78
2021/05/18 16:41:09;;;;;;;2.95;1.25;;;18.10;99.90;;;;;;4990238;28;20173;-79
2021/05/18 16:43:35;;;;;;;1.25;1.10;;;18.00;99.90;;;;;;4993304;28;20166;-80
2021/05/18 16:46:03;;;;;;;1.27;1.10;;;18.00;99.90;;;;;;5004761;28;20224;-80
2021/05/18 16:48:29;;;;;;;1.77;1.00;;;18.00;99.90;;;;;;5008677;28;20188;-78
2021/05/18 16:50:56;;;;;;;1.10;1.00;;;17.90;99.90;;;;;;5007495;28;20545;-79
2021/05/18 16:53:21;;;;;;;2.15;1.13;;;18.10;99.90;;;;;;4983855;28;20177;-79
2021/05/18 16:55:48;;;;;;;2.28;1.88;;;18.10;99.90;;;;;;4972532;28;20181;-79
2021/05/18 16:58:14;;;;;;;1.42;0.80;;;18.20;99.90;;;;;;4974383;28;20216;-78
2021/05/18 17:00:40;;;;;;;1.15;1.05;;;18.10;99.90;;;;;;4971132;28;20174;-80
2021/05/18 17:03:05;;;;;;;3.15;1.38;;;18.10;99.90;;;;;;4973132;28;20173;-79
2021/05/18 17:05:31;;;;;;;2.95;1.40;;;18.20;99.90;;;;;;4971449;28;20232;-79
2021/05/18 17:08:02;;;;;;;3.50;2.70;;;18.20;99.90;;;;;;4971479;28;20190;-78
2021/05/18 17:10:34;;;;;;;1.73;1.45;;;18.00;99.90;;;;;;4992777;28;20327;-78
2021/05/18 17:13:01;;;;;;;2.03;1.48;;;18.10;99.90;;;;;;4992642;28;20164;-78
2021/05/18 17:15:28;;;;;;;1.02;1.02;;;18.10;99.90;;;;;;4992083;28;20255;-80
2021/05/18 17:17:55;;;;;;;1.48;0.82;;;18.10;99.90;;;;;;4974552;28;20202;-80
2021/05/18 17:20:22;;;;;;;1.05;1.05;;;17.90;99.90;;;;;;4973400;28;20169;-81
2021/05/18 17:22:47;;;;;;;3.47;1.88;;;18.10;99.90;;;;;;4976938;28;20578;-79
2021/05/18 17:25:14;;;;;;;2.72;2.35;;;18.30;99.90;;;;;;4979961;28;20209;-79
2021/05/18 17:27:40;;;;;;;1.73;1.50;;;18.50;99.90;;;;;;4996119;28;20196;-80
2021/05/18 17:30:09;;;;;;;2.20;1.20;;;18.60;99.90;;;;;;4994867;28;20482;-84
2021/05/18 17:32:36;;;;;;;5.55;1.40;;;18.70;99.90;;;;;;4996094;28;20275;-81
2021/05/18 17:35:01;;;;;;;2.72;1.52;;;18.50;99.90;;;;;;4996093;28;20165;-83
2021/05/18 17:37:27;;;;;;;2.60;1.10;;;18.20;99.90;;;;;;4976599;28;20551;-80